createdAt,value
2023-02-28T00:01:16.712Z,48.48
2023-02-28T00:03:43.465Z,48.28
2023-02-28T00:06:13.389Z,46.86
2023-02-28T00:08:40.204Z,48.73
2023-02-28T00:11:07.915Z,46.55
2023-02-28T00:13:40.338Z,48.27
2023-02-28T00:16:14.400Z,48.75
2023-02-28T00:18:41.051Z,48.61
2023-02-28T00:21:08.272Z,48.77
2023-02-28T00:23:35.668Z,49.00
2023-02-28T00:26:02.652Z,48.77
2023-02-28T00:28:29.526Z,48.70
2023-02-28T00:30:56.033Z,46.84
2023-02-28T00:33:22.543Z,48.46
2023-02-28T00:35:49.783Z,48.57
2023-02-28T00:38:16.686Z,48.58
2023-02-28T00:40:43.164Z,46.93
2023-02-28T00:43:09.900Z,48.15
2023-02-28T00:45:36.413Z,48.27
2023-02-28T00:48:03.133Z,48.22
2023-02-28T00:50:29.689Z,48.31
2023-02-28T00:52:56.133Z,48.12
2023-02-28T00:55:22.750Z,48.52
2023-02-28T00:57:49.185Z,48.82
2023-02-28T01:00:16.181Z,48.82
2023-02-28T01:02:42.670Z,49.10
2023-02-28T01:05:09.441Z,48.65
2023-02-28T01:07:35.937Z,46.97
2023-02-28T01:10:02.654Z,48.47
2023-02-28T01:12:30.917Z,48.52
2023-02-28T01:14:57.599Z,48.89
2023-02-28T01:17:24.199Z,48.67
2023-02-28T01:19:50.651Z,48.97
2023-02-28T01:22:17.142Z,48.95
2023-02-28T01:24:43.627Z,48.87
2023-02-28T01:27:10.116Z,48.75
2023-02-28T01:29:36.965Z,48.97
2023-02-28T01:32:03.932Z,48.74
2023-02-28T01:34:30.672Z,48.48
2023-02-28T01:36:59.887Z,48.94
2023-02-28T01:39:27.675Z,48.97
2023-02-28T01:41:54.244Z,49.05
2023-02-28T01:44:59.102Z,48.53
2023-02-28T01:47:29.948Z,49.18
2023-02-28T01:49:56.829Z,48.81
2023-02-28T01:52:23.673Z,47.41
2023-02-28T01:54:53.667Z,48.73
2023-02-28T01:57:25.010Z,48.73
2023-02-28T01:59:57.451Z,48.93
2023-02-28T02:02:25.396Z,48.42
2023-02-28T02:04:57.738Z,48.58
2023-02-28T02:07:26.354Z,48.58
2023-02-28T02:10:03.249Z,48.76
2023-02-28T02:12:32.855Z,48.70
2023-02-28T02:15:06.588Z,48.66
2023-02-28T02:17:43.735Z,48.84
2023-02-28T02:20:45.526Z,48.81
2023-02-28T02:23:40.593Z,48.27
2023-02-28T02:26:48.347Z,48.45
2023-02-28T02:29:24.886Z,48.79
2023-02-28T02:32:12.609Z,48.84
2023-02-28T02:34:47.869Z,49.13
2023-02-28T02:37:14.412Z,49.62
2023-02-28T02:39:53.897Z,49.52
2023-02-28T02:42:35.966Z,49.32
2023-02-28T02:45:10.032Z,49.83
2023-02-28T02:47:38.743Z,49.93
2023-02-28T02:50:13.532Z,49.88
2023-02-28T02:52:45.729Z,50.23
2023-02-28T02:55:14.279Z,50.26
2023-02-28T02:57:56.637Z,49.99
2023-02-28T03:00:29.195Z,50.18
2023-02-28T03:02:57.306Z,50.43
2023-02-28T03:05:31.325Z,50.73
2023-02-28T03:07:57.956Z,51.03
2023-02-28T03:10:51.153Z,50.13
2023-02-28T03:13:34.848Z,50.15
2023-02-28T03:16:28.629Z,50.08
2023-02-28T03:19:04.115Z,51.11
2023-02-28T03:21:49.486Z,50.32
2023-02-28T03:24:24.400Z,50.92
2023-02-28T03:27:02.642Z,50.55
2023-02-28T03:29:40.393Z,50.77
2023-02-28T03:32:22.574Z,50.50
2023-02-28T03:35:04.740Z,50.51
2023-02-28T03:37:36.899Z,50.32
2023-02-28T03:40:13.782Z,50.56
2023-02-28T03:42:44.427Z,50.51
2023-02-28T03:45:19.646Z,50.57
2023-02-28T03:48:10.085Z,50.43
2023-02-28T03:50:42.598Z,50.33
2023-02-28T03:53:20.681Z,50.07
2023-02-28T03:55:51.606Z,50.63
2023-02-28T03:58:45.437Z,50.01
2023-02-28T04:01:29.320Z,49.99
2023-02-28T04:03:56.272Z,50.11
2023-02-28T04:06:23.765Z,48.45
2023-02-28T04:08:51.176Z,50.00
2023-02-28T04:11:25.376Z,50.16
2023-02-28T04:13:51.924Z,50.19
2023-02-28T04:16:33.530Z,50.31
2023-02-28T04:19:03.546Z,50.43
2023-02-28T04:21:31.626Z,50.66
2023-02-28T04:24:01.544Z,50.98
2023-02-28T04:26:36.089Z,50.69
2023-02-28T04:29:05.214Z,50.80
2023-02-28T04:31:32.169Z,50.77
2023-02-28T04:33:59.026Z,50.99
2023-02-28T04:36:25.960Z,50.88
2023-02-28T04:38:52.764Z,51.36
2023-02-28T04:41:19.612Z,49.10
2023-02-28T04:43:46.206Z,50.89
2023-02-28T04:46:13.201Z,50.96
2023-02-28T04:48:40.969Z,51.55
2023-02-28T04:51:11.538Z,54.29
2023-02-28T04:53:39.982Z,58.68
2023-02-28T04:56:08.312Z,62.24
2023-02-28T04:58:35.240Z,64.92
2023-02-28T05:01:13.589Z,66.56
2023-02-28T05:03:43.779Z,67.79
2023-02-28T05:06:11.810Z,68.31
2023-02-28T05:08:38.762Z,68.24
2023-02-28T05:11:35.724Z,68.15
2023-02-28T05:14:05.737Z,67.07
2023-02-28T05:16:32.939Z,66.13
2023-02-28T05:18:59.921Z,58.78
2023-02-28T05:21:34.056Z,52.79
2023-02-28T05:24:27.118Z,51.16
2023-02-28T05:26:55.172Z,48.00
2023-02-28T05:29:22.142Z,46.62
2023-02-28T05:31:48.839Z,46.71
2023-02-28T05:34:16.627Z,45.95
2023-02-28T05:36:43.443Z,46.13
2023-02-28T05:39:13.988Z,48.34
2023-02-28T05:41:44.589Z,55.22
2023-02-28T05:44:11.961Z,57.96
2023-02-28T05:46:39.336Z,57.76
2023-02-28T05:49:06.133Z,57.98
2023-02-28T05:51:35.417Z,53.88
2023-02-28T05:54:02.659Z,50.71
2023-02-28T05:56:29.711Z,51.22
2023-02-28T05:58:56.392Z,49.51
2023-02-28T06:01:32.296Z,48.60
2023-02-28T06:04:01.141Z,47.54
2023-02-28T06:06:28.360Z,47.12
2023-02-28T06:08:55.177Z,46.77
2023-02-28T06:11:21.742Z,47.47
2023-02-28T06:13:48.850Z,47.24
2023-02-28T06:16:15.402Z,47.10
2023-02-28T06:18:42.122Z,47.11
2023-02-28T06:21:10.020Z,47.34
2023-02-28T06:23:36.776Z,47.56
2023-02-28T06:26:03.252Z,47.44
2023-02-28T06:28:29.805Z,47.99
2023-02-28T06:30:56.530Z,48.05
2023-02-28T06:33:23.229Z,48.25
2023-02-28T06:35:53.242Z,48.56
2023-02-28T06:38:20.224Z,48.51
2023-02-28T06:40:55.120Z,48.79
2023-02-28T06:43:22.294Z,49.38
2023-02-28T06:45:48.914Z,49.20
2023-02-28T06:48:15.730Z,49.48
2023-02-28T06:50:42.214Z,48.51
2023-02-28T06:53:08.859Z,49.58
2023-02-28T06:55:35.371Z,50.10
2023-02-28T06:58:01.891Z,50.25
2023-02-28T07:00:29.849Z,50.26
2023-02-28T07:02:56.747Z,50.48
2023-02-28T07:05:23.180Z,49.30
2023-02-28T07:07:49.796Z,50.66
2023-02-28T07:10:20.113Z,51.24
2023-02-28T07:12:47.028Z,51.11
2023-02-28T07:15:13.724Z,51.07
2023-02-28T07:17:40.354Z,50.84
2023-02-28T07:20:07.463Z,51.08
2023-02-28T07:22:34.025Z,51.04
2023-02-28T07:25:00.658Z,50.59
2023-02-28T07:27:27.236Z,50.68
2023-02-28T07:29:54.561Z,50.89
2023-02-28T07:32:21.495Z,50.99
2023-02-28T07:34:48.111Z,51.00
2023-02-28T07:37:14.739Z,51.08
2023-02-28T07:39:44.630Z,50.99
2023-02-28T07:42:12.939Z,51.01
2023-02-28T07:44:41.702Z,51.23
2023-02-28T07:47:09.658Z,51.41
2023-02-28T07:49:39.342Z,51.33
2023-02-28T07:52:07.901Z,51.67
2023-02-28T07:54:34.768Z,51.64
2023-02-28T07:57:01.232Z,50.33
2023-02-28T07:59:27.721Z,51.67
2023-02-28T08:01:54.384Z,51.71
2023-02-28T08:04:21.016Z,51.48
2023-02-28T08:06:47.648Z,51.95
2023-02-28T08:09:15.315Z,51.70
2023-02-28T08:11:43.234Z,51.91
2023-02-28T08:14:09.783Z,51.67
2023-02-28T08:16:36.441Z,51.95
2023-02-28T08:19:03.085Z,52.02
2023-02-28T08:21:30.034Z,51.44
2023-02-28T08:23:57.961Z,52.44
2023-02-28T08:26:24.706Z,52.23
2023-02-28T08:28:51.302Z,52.36
2023-02-28T08:31:18.382Z,52.70
2023-02-28T08:33:45.808Z,51.92
2023-02-28T08:36:13.221Z,52.01
2023-02-28T08:38:40.041Z,51.67
2023-02-28T08:41:08.335Z,50.92
2023-02-28T08:43:36.021Z,51.21
2023-02-28T08:46:02.850Z,50.63
2023-02-28T08:48:30.119Z,50.17
2023-02-28T08:51:07.808Z,50.23
2023-02-28T08:53:35.423Z,49.13
2023-02-28T08:56:05.536Z,48.72
2023-02-28T08:58:32.247Z,48.68
2023-02-28T09:00:58.842Z,48.76
2023-02-28T09:03:25.546Z,48.65
2023-02-28T09:05:57.375Z,48.45
2023-02-28T09:08:26.891Z,47.26
2023-02-28T09:10:53.513Z,46.99
2023-02-28T09:13:20.114Z,47.07
2023-02-28T09:15:47.248Z,46.83
2023-02-28T09:18:14.274Z,47.30
2023-02-28T09:20:42.571Z,46.81
2023-02-28T09:23:10.890Z,46.88
2023-02-28T09:25:38.109Z,47.20
2023-02-28T09:28:05.151Z,46.80
2023-02-28T09:30:31.913Z,46.08
2023-02-28T09:32:58.421Z,48.02
2023-02-28T09:35:27.803Z,45.89
2023-02-28T09:37:54.663Z,45.36
2023-02-28T09:40:25.219Z,47.32
2023-02-28T09:42:55.300Z,45.42
2023-02-28T09:45:33.830Z,45.36
2023-02-28T09:48:05.646Z,44.35
2023-02-28T09:50:38.050Z,43.93
2023-02-28T09:53:15.227Z,43.97
2023-02-28T09:55:51.089Z,43.85
2023-02-28T09:58:37.863Z,43.62
2023-02-28T10:01:25.857Z,44.10
2023-02-28T10:03:58.092Z,45.33
2023-02-28T10:06:32.054Z,42.82
2023-02-28T10:09:06.334Z,42.10
2023-02-28T10:11:38.880Z,41.49
2023-02-28T10:14:16.796Z,43.01
2023-02-28T10:16:52.995Z,41.42
2023-02-28T10:19:40.913Z,42.81
2023-02-28T10:22:21.910Z,42.61
2023-02-28T10:24:52.596Z,39.77
2023-02-28T10:27:23.485Z,40.16
2023-02-28T10:29:57.849Z,39.89
2023-02-28T10:32:29.999Z,38.96
2023-02-28T10:35:01.342Z,38.24
2023-02-28T10:37:29.450Z,36.48
2023-02-28T10:39:56.767Z,36.65
2023-02-28T10:42:27.562Z,37.25
2023-02-28T10:45:06.481Z,38.90
2023-02-28T10:47:35.507Z,36.68
2023-02-28T10:50:03.280Z,36.71
2023-02-28T10:52:39.890Z,38.08
2023-02-28T10:55:26.079Z,39.21
2023-02-28T10:57:53.487Z,36.08
2023-02-28T11:00:23.046Z,36.43
2023-02-28T11:02:50.111Z,35.35
2023-02-28T11:05:34.974Z,38.13
2023-02-28T11:08:13.685Z,35.18
2023-02-28T11:10:40.836Z,35.05
2023-02-28T11:13:07.489Z,34.91
2023-02-28T11:15:35.984Z,34.86
2023-02-28T11:18:14.721Z,33.56
2023-02-28T11:20:41.547Z,33.10
2023-02-28T11:23:14.684Z,34.85
2023-02-28T11:25:47.570Z,33.28
2023-02-28T11:28:29.874Z,35.01
2023-02-28T11:31:11.297Z,34.09
2023-02-28T11:33:53.487Z,33.95
2023-02-28T11:36:32.620Z,32.70
2023-02-28T11:39:10.833Z,33.31
2023-02-28T11:42:08.105Z,34.12
2023-02-28T11:44:55.851Z,35.41
2023-02-28T11:47:44.285Z,33.73
2023-02-28T11:50:36.020Z,33.76
2023-02-28T11:53:25.093Z,32.78
2023-02-28T11:56:12.374Z,33.32
2023-02-28T11:59:05.673Z,34.85
2023-02-28T12:02:07.005Z,35.13
2023-02-28T12:04:49.233Z,33.53
2023-02-28T12:08:07.107Z,33.78
2023-02-28T12:10:44.454Z,31.64
2023-02-28T12:13:22.760Z,31.99
2023-02-28T12:15:57.617Z,31.01
2023-02-28T12:18:54.297Z,31.67
2023-02-28T12:21:36.430Z,32.80
2023-02-28T12:24:23.663Z,31.66
2023-02-28T12:26:52.431Z,29.96
2023-02-28T12:29:35.172Z,32.07
2023-02-28T12:32:36.764Z,32.15
2023-02-28T12:35:13.987Z,32.41
2023-02-28T12:38:20.496Z,33.93
2023-02-28T12:41:06.983Z,32.99
2023-02-28T12:43:43.642Z,31.20
2023-02-28T12:46:15.645Z,31.10
2023-02-28T12:48:54.463Z,32.06
2023-02-28T12:51:21.643Z,29.37
2023-02-28T12:54:12.429Z,32.50
2023-02-28T12:57:14.786Z,31.75
2023-02-28T12:59:54.765Z,28.97
2023-02-28T13:02:42.320Z,28.02
2023-02-28T13:05:33.661Z,30.36
2023-02-28T13:08:21.513Z,29.71
2023-02-28T13:10:51.884Z,34.03
2023-02-28T13:13:21.629Z,28.08
2023-02-28T13:16:05.476Z,30.71
2023-02-28T13:18:45.511Z,30.11
2023-02-28T13:21:28.121Z,30.57
2023-02-28T13:23:59.213Z,27.83
2023-02-28T13:26:31.931Z,28.68
2023-02-28T13:29:01.245Z,28.38
2023-02-28T13:31:28.815Z,27.44
2023-02-28T13:33:55.518Z,28.01
2023-02-28T13:36:23.793Z,28.54
2023-02-28T13:39:01.136Z,29.25
2023-02-28T13:41:42.571Z,30.22
2023-02-28T13:44:11.933Z,28.66
2023-02-28T13:46:58.292Z,30.06
2023-02-28T13:49:27.607Z,27.79
2023-02-28T13:52:03.602Z,28.36
2023-02-28T13:54:36.762Z,27.80
2023-02-28T13:57:27.530Z,29.63
2023-02-28T14:00:09.452Z,27.97
2023-02-28T14:02:51.450Z,28.64
2023-02-28T14:05:26.643Z,28.45
2023-02-28T14:08:05.683Z,29.47
2023-02-28T14:10:38.394Z,27.74
2023-02-28T14:13:53.204Z,30.45
2023-02-28T14:16:31.023Z,29.41
2023-02-28T14:19:06.589Z,29.52
2023-02-28T14:21:39.240Z,29.77
2023-02-28T14:24:48.814Z,31.36
2023-02-28T14:27:27.446Z,30.29
2023-02-28T14:29:53.852Z,28.54
2023-02-28T14:32:49.364Z,30.57
2023-02-28T14:35:43.867Z,30.63
2023-02-28T14:38:19.101Z,29.16
2023-02-28T14:40:47.253Z,28.26
2023-02-28T14:43:23.845Z,29.40
2023-02-28T14:45:53.784Z,28.82
2023-02-28T14:48:21.657Z,28.34
2023-02-28T14:50:59.620Z,30.24
2023-02-28T14:53:36.159Z,28.81
2023-02-28T14:56:02.911Z,27.79
2023-02-28T14:58:31.748Z,31.77
2023-02-28T15:01:01.837Z,28.51
2023-02-28T15:03:34.088Z,29.92
2023-02-28T15:06:06.122Z,28.70
2023-02-28T15:08:36.875Z,28.54
2023-02-28T15:11:08.135Z,28.70
2023-02-28T15:13:42.842Z,29.61
2023-02-28T15:16:17.720Z,28.93
2023-02-28T15:18:59.307Z,29.71
2023-02-28T15:21:33.343Z,29.08
2023-02-28T15:24:16.828Z,29.81
2023-02-28T15:26:47.231Z,28.79
2023-02-28T15:29:21.620Z,29.40
2023-02-28T15:31:58.422Z,29.40
2023-02-28T15:34:42.121Z,29.40
2023-02-28T15:37:27.553Z,30.85
2023-02-28T15:39:56.014Z,28.42
2023-02-28T15:42:24.755Z,28.37
2023-02-28T15:44:51.273Z,28.78
2023-02-28T15:47:23.979Z,29.55
2023-02-28T15:49:53.092Z,28.77
2023-02-28T15:52:46.479Z,30.93
2023-02-28T15:55:27.057Z,30.38
2023-02-28T15:58:01.216Z,30.02
2023-02-28T16:00:29.830Z,29.52
2023-02-28T16:02:56.577Z,29.42
2023-02-28T16:05:29.269Z,29.52
2023-02-28T16:08:14.602Z,30.93
2023-02-28T16:10:41.163Z,29.66
2023-02-28T16:13:13.497Z,29.84
2023-02-28T16:15:44.226Z,30.33
2023-02-28T16:18:14.183Z,30.79
2023-02-28T16:20:40.965Z,30.59
2023-02-28T16:23:07.386Z,32.79
2023-02-28T16:25:43.952Z,31.47
2023-02-28T16:28:21.656Z,31.62
2023-02-28T16:30:48.360Z,30.65
2023-02-28T16:33:14.751Z,32.61
2023-02-28T16:35:41.932Z,30.94
2023-02-28T16:38:08.368Z,31.70
2023-02-28T16:40:37.095Z,31.51
2023-02-28T16:43:11.186Z,31.70
2023-02-28T16:45:37.879Z,31.63
2023-02-28T16:48:04.343Z,33.06
2023-02-28T16:50:33.532Z,31.62
2023-02-28T16:53:00.087Z,32.09
2023-02-28T16:55:27.613Z,31.92
2023-02-28T16:58:01.755Z,32.52
2023-02-28T17:00:30.781Z,32.44
2023-02-28T17:02:57.566Z,32.53
2023-02-28T17:05:25.343Z,32.87
2023-02-28T17:07:52.062Z,33.08
2023-02-28T17:10:23.594Z,33.83
2023-02-28T17:12:50.335Z,33.23
2023-02-28T17:15:18.100Z,33.70
2023-02-28T17:17:46.471Z,33.41
2023-02-28T17:20:19.039Z,33.32
2023-02-28T17:22:48.427Z,33.73
2023-02-28T17:31:06.798Z,33.87
2023-02-28T17:33:33.231Z,34.31
2023-02-28T17:36:13.332Z,34.57
2023-02-28T17:38:39.904Z,34.50
2023-02-28T17:41:06.489Z,34.70
2023-02-28T17:43:33.133Z,34.95
2023-02-28T17:45:59.827Z,35.00
2023-02-28T17:48:26.330Z,34.88
2023-02-28T17:50:52.932Z,34.95
2023-02-28T17:53:19.495Z,35.25
2023-02-28T17:55:46.088Z,35.17
2023-02-28T17:58:13.809Z,35.37
2023-02-28T18:00:40.497Z,35.48
2023-02-28T18:03:07.145Z,35.35
2023-02-28T18:05:36.544Z,35.63
2023-02-28T18:08:04.308Z,36.07
2023-02-28T18:12:57.719Z,35.88
2023-02-28T18:15:24.826Z,36.03
2023-02-28T18:17:52.011Z,36.51
2023-02-28T18:20:19.544Z,36.37
2023-02-28T18:22:46.671Z,36.30
2023-02-28T18:25:17.907Z,36.62
2023-02-28T18:27:54.386Z,36.79
2023-02-28T18:30:22.076Z,37.00
2023-02-28T18:32:49.151Z,36.89
2023-02-28T18:35:15.710Z,37.31
2023-02-28T18:37:42.256Z,37.22
2023-02-28T18:40:09.797Z,37.32
2023-02-28T18:42:36.421Z,37.13
2023-02-28T18:45:03.171Z,37.65
2023-02-28T18:47:29.696Z,37.92
2023-02-28T18:49:56.233Z,37.70
2023-02-28T18:52:22.994Z,38.10
2023-02-28T18:54:49.638Z,38.20
2023-02-28T18:57:16.226Z,38.35
2023-02-28T18:59:42.760Z,38.50
2023-02-28T19:02:10.287Z,38.44
2023-02-28T19:04:36.853Z,38.58
2023-02-28T19:07:03.386Z,38.85
2023-02-28T19:09:29.906Z,38.97
2023-02-28T19:11:56.493Z,39.01
2023-02-28T19:14:23.096Z,39.14
2023-02-28T19:16:50.900Z,39.56
2023-02-28T19:19:17.554Z,39.60
2023-02-28T19:21:44.034Z,39.71
2023-02-28T19:24:10.590Z,39.60
2023-02-28T19:26:37.751Z,39.66
2023-02-28T19:29:05.611Z,39.64
2023-02-28T19:31:32.595Z,39.86
2023-02-28T19:33:59.319Z,39.79
2023-02-28T19:36:27.037Z,40.00
2023-02-28T19:38:53.615Z,40.20
2023-02-28T19:41:20.400Z,40.03
2023-02-28T19:43:47.850Z,40.21
2023-02-28T19:46:14.652Z,40.35
2023-02-28T19:48:42.568Z,38.60
2023-02-28T19:51:12.990Z,40.48
2023-02-28T19:53:41.522Z,40.75
2023-02-28T19:56:08.758Z,40.68
2023-02-28T19:58:35.747Z,40.82
2023-02-28T20:01:12.905Z,40.71
2023-02-28T20:03:40.136Z,41.29
2023-02-28T20:06:09.972Z,41.21
2023-02-28T20:08:38.002Z,41.46
2023-02-28T20:11:06.692Z,41.64
2023-02-28T20:13:33.779Z,42.19
2023-02-28T20:16:02.852Z,41.82
2023-02-28T20:18:29.464Z,41.98
2023-02-28T20:20:56.273Z,42.15
2023-02-28T20:23:22.850Z,39.85
2023-02-28T20:25:51.495Z,41.92
2023-02-28T20:28:18.984Z,42.43
2023-02-28T20:30:48.752Z,42.46
2023-02-28T20:33:19.507Z,42.18
2023-02-28T20:35:46.330Z,42.81
2023-02-28T20:38:12.871Z,40.48
2023-02-28T20:40:39.584Z,42.35
2023-02-28T20:43:06.654Z,42.40
2023-02-28T20:45:33.184Z,42.81
2023-02-28T20:47:59.739Z,42.87
2023-02-28T20:50:26.306Z,42.92
2023-02-28T20:52:53.179Z,43.27
2023-02-28T20:55:20.483Z,41.08
2023-02-28T20:57:47.406Z,42.67
2023-02-28T21:00:18.489Z,40.79
2023-02-28T21:02:45.607Z,42.86
2023-02-28T21:05:12.132Z,43.40
2023-02-28T21:07:38.736Z,43.52
2023-02-28T21:10:06.074Z,43.66
2023-02-28T21:12:33.167Z,43.89
2023-02-28T21:14:59.709Z,43.83
2023-02-28T21:17:26.258Z,43.84
2023-02-28T21:19:52.787Z,43.73
2023-02-28T21:22:19.337Z,44.09
2023-02-28T21:24:46.133Z,44.09
2023-02-28T21:27:12.733Z,43.98
2023-02-28T21:29:39.453Z,43.94
2023-02-28T21:32:07.684Z,44.21
2023-02-28T21:34:34.256Z,44.50
2023-02-28T21:37:01.115Z,44.25
2023-02-28T21:39:30.142Z,42.00
2023-02-28T21:42:04.320Z,44.11
2023-02-28T21:44:34.636Z,44.42
2023-02-28T21:47:02.498Z,44.80
2023-02-28T21:49:29.561Z,44.72
2023-02-28T21:51:56.358Z,44.80
2023-02-28T21:54:22.830Z,42.17
2023-02-28T21:56:52.473Z,44.36
2023-02-28T21:59:19.726Z,44.88
2023-02-28T22:01:46.740Z,44.80
2023-02-28T22:04:21.262Z,44.89
2023-02-28T22:06:54.604Z,44.89
2023-02-28T22:09:21.671Z,45.02
2023-02-28T22:11:48.466Z,44.91
2023-02-28T22:14:14.945Z,42.55
2023-02-28T22:16:51.373Z,44.93
2023-02-28T22:19:19.777Z,44.93
2023-02-28T22:21:47.608Z,45.13
2023-02-28T22:24:15.561Z,44.87
2023-02-28T22:26:42.111Z,45.06
2023-02-28T22:29:08.920Z,44.85
2023-02-28T22:31:36.099Z,42.67
2023-02-28T22:34:07.363Z,44.89
2023-02-28T22:36:34.233Z,45.07
2023-02-28T22:39:01.404Z,44.99
2023-02-28T22:41:29.099Z,45.31
2023-02-28T22:43:57.744Z,45.52
2023-02-28T22:46:26.438Z,45.52
2023-02-28T22:48:53.958Z,45.60
2023-02-28T22:51:24.015Z,45.68
2023-02-28T22:53:52.032Z,45.59
2023-02-28T22:56:21.210Z,45.64
2023-02-28T22:58:52.853Z,45.78
2023-02-28T23:01:22.206Z,45.89
2023-02-28T23:03:49.050Z,45.85
2023-02-28T23:06:18.253Z,43.60
2023-02-28T23:08:44.804Z,45.41
2023-02-28T23:11:16.916Z,46.09
2023-02-28T23:13:44.020Z,46.02
2023-02-28T23:16:10.585Z,46.24
2023-02-28T23:18:37.284Z,46.15
2023-02-28T23:21:04.098Z,46.36
2023-02-28T23:23:30.682Z,43.78
2023-02-28T23:25:57.217Z,46.13
2023-02-28T23:28:23.750Z,46.01
2023-02-28T23:30:50.513Z,46.15
2023-02-28T23:33:17.047Z,46.50
2023-02-28T23:35:43.614Z,46.60
2023-02-28T23:38:10.145Z,46.20
2023-02-28T23:40:36.574Z,46.47
2023-02-28T23:43:03.079Z,46.27
2023-02-28T23:45:29.587Z,46.48
2023-02-28T23:47:56.266Z,46.79
2023-02-28T23:50:22.894Z,46.61
2023-02-28T23:52:49.453Z,46.43
2023-02-28T23:55:15.972Z,46.76
2023-02-28T23:57:42.447Z,46.58
